createdAt,value
2022-09-15T00:01:01.509Z,97291.81
2022-09-15T00:03:29.071Z,97289.16
2022-09-15T00:05:56.464Z,97295.31
2022-09-15T00:08:25.081Z,97292.25
2022-09-15T00:10:55.455Z,97285.91
2022-09-15T00:13:23.282Z,97279.38
2022-09-15T00:15:50.680Z,97275.69
2022-09-15T00:18:18.211Z,97271.81
2022-09-15T00:20:46.182Z,97272.84
2022-09-15T00:23:15.154Z,97273.56
2022-09-15T00:25:47.493Z,97265.13
2022-09-15T00:28:16.404Z,97274.34
2022-09-15T00:30:46.744Z,97269.69
2022-09-15T00:33:14.934Z,97275.97
2022-09-15T00:35:44.625Z,97275.53
2022-09-15T00:38:13.163Z,97277.56
2022-09-15T00:41:00.025Z,97268.78
2022-09-15T00:43:56.902Z,97272.09
2022-09-15T00:46:34.444Z,97275.03
2022-09-15T00:49:18.316Z,97268.63
2022-09-15T00:51:51.439Z,97277.81
2022-09-15T00:54:22.459Z,97276.81
2022-09-15T00:56:53.085Z,97276.03
2022-09-15T00:59:24.736Z,97264.59
2022-09-15T01:01:58.784Z,97279.34
2022-09-15T01:04:26.415Z,97272.19
2022-09-15T01:06:59.003Z,97267.72
2022-09-15T01:09:37.890Z,97272.88
2022-09-15T01:12:05.814Z,97271.94
2022-09-15T01:14:33.160Z,97268.06
2022-09-15T01:17:20.982Z,97269.50
2022-09-15T01:20:03.193Z,97270.50
2022-09-15T01:22:49.122Z,97255.56
2022-09-15T01:25:35.165Z,97262.56
2022-09-15T01:28:37.805Z,97258.81
2022-09-15T01:31:13.305Z,97250.81
2022-09-15T01:33:49.699Z,97249.59
2022-09-15T01:36:25.087Z,97244.41
2022-09-15T01:39:00.867Z,97240.47
2022-09-15T01:41:49.681Z,97236.50
2022-09-15T01:44:31.176Z,97240.50
2022-09-15T01:47:03.010Z,97241.47
2022-09-15T01:49:36.339Z,97233.44
2022-09-15T01:52:03.821Z,97240.25
2022-09-15T01:54:34.611Z,97235.00
2022-09-15T01:57:02.802Z,97232.72
2022-09-15T01:59:30.095Z,97233.75
2022-09-15T02:02:05.721Z,97230.88
2022-09-15T02:04:59.324Z,97230.88
2022-09-15T02:08:05.446Z,97229.94
2022-09-15T02:10:57.566Z,97235.44
2022-09-15T02:13:56.631Z,97237.03
2022-09-15T02:16:26.737Z,97236.50
2022-09-15T02:19:15.962Z,97231.81
2022-09-15T02:22:06.956Z,97230.16
2022-09-15T02:25:03.195Z,97229.88
2022-09-15T02:27:37.692Z,97231.28
2022-09-15T02:30:09.658Z,97223.38
2022-09-15T02:32:38.637Z,97227.50
2022-09-15T02:35:08.019Z,97230.34
2022-09-15T02:37:37.100Z,97226.31
2022-09-15T02:40:05.748Z,97230.72
2022-09-15T02:42:33.629Z,97228.09
2022-09-15T02:45:01.871Z,97231.16
2022-09-15T02:47:29.931Z,97218.19
2022-09-15T02:49:57.412Z,97221.50
2022-09-15T02:52:25.388Z,97216.44
2022-09-15T02:54:53.461Z,97211.78
2022-09-15T02:57:21.000Z,97213.88
2022-09-15T03:00:06.773Z,97207.06
2022-09-15T03:02:34.487Z,97201.53
2022-09-15T03:05:01.928Z,97207.91
2022-09-15T03:07:30.109Z,97201.94
2022-09-15T03:09:58.288Z,97201.28
2022-09-15T03:12:26.388Z,97203.56
2022-09-15T03:14:53.659Z,97205.28
2022-09-15T03:17:20.940Z,97203.47
2022-09-15T03:19:48.207Z,97205.50
2022-09-15T03:22:15.494Z,97213.50
2022-09-15T03:24:42.776Z,97210.63
2022-09-15T03:27:10.075Z,97207.38
2022-09-15T03:29:37.365Z,97220.75
2022-09-15T03:32:04.833Z,97230.00
2022-09-15T03:34:32.120Z,97238.81
2022-09-15T03:36:59.687Z,97234.50
2022-09-15T03:39:27.174Z,97234.56
2022-09-15T03:41:54.469Z,97239.28
2022-09-15T03:44:21.996Z,97234.75
2022-09-15T03:46:49.285Z,97239.91
2022-09-15T03:49:16.747Z,97230.63
2022-09-15T03:51:44.543Z,97236.69
2022-09-15T03:54:12.572Z,97231.63
2022-09-15T03:56:39.848Z,97237.44
2022-09-15T03:59:07.608Z,97243.41
2022-09-15T04:01:35.560Z,97239.53
2022-09-15T04:04:02.935Z,97237.50
2022-09-15T04:06:31.111Z,97233.16
2022-09-15T04:09:00.153Z,97238.72
2022-09-15T04:11:27.481Z,97238.50
2022-09-15T04:13:55.077Z,97231.50
2022-09-15T04:16:23.875Z,97235.50
2022-09-15T04:18:52.665Z,97238.00
2022-09-15T04:21:22.109Z,97238.63
2022-09-15T04:23:49.734Z,97245.19
2022-09-15T04:26:31.552Z,97238.81
2022-09-15T04:29:03.907Z,97240.44
2022-09-15T04:31:33.040Z,97242.06
2022-09-15T04:34:00.548Z,97238.81
2022-09-15T04:36:29.167Z,97241.28
2022-09-15T04:38:57.333Z,97231.84
2022-09-15T04:41:25.675Z,97244.63
2022-09-15T04:43:53.097Z,97237.84
2022-09-15T04:46:20.422Z,97240.50
2022-09-15T04:48:48.828Z,97239.69
2022-09-15T04:51:18.814Z,97246.50
2022-09-15T04:53:47.840Z,97246.69
2022-09-15T04:56:17.693Z,97242.78
2022-09-15T04:58:47.506Z,97247.31
2022-09-15T05:01:17.989Z,97246.50
2022-09-15T05:03:46.359Z,97248.59
2022-09-15T05:06:15.825Z,97249.59
2022-09-15T05:08:43.700Z,97251.03
2022-09-15T05:11:12.205Z,97247.19
2022-09-15T05:13:40.274Z,97253.53
2022-09-15T05:16:12.733Z,97252.72
2022-09-15T05:18:41.326Z,97267.34
2022-09-15T05:21:10.064Z,97259.75
2022-09-15T05:23:38.393Z,97257.09
2022-09-15T05:26:08.357Z,97265.91
2022-09-15T05:28:36.706Z,97260.56
2022-09-15T05:31:12.308Z,97257.56
2022-09-15T05:33:39.807Z,97251.78
2022-09-15T05:36:07.263Z,97262.22
2022-09-15T05:38:35.158Z,97252.88
2022-09-15T05:41:07.224Z,97246.72
2022-09-15T05:43:35.345Z,97247.66
2022-09-15T05:46:03.294Z,97248.22
2022-09-15T05:48:30.823Z,97251.78
2022-09-15T05:50:58.552Z,97258.91
2022-09-15T05:53:26.288Z,97257.91
2022-09-15T05:55:57.754Z,97247.91
2022-09-15T05:58:25.981Z,97246.53
2022-09-15T06:00:54.010Z,97243.88
2022-09-15T06:03:22.044Z,97251.31
2022-09-15T06:05:49.737Z,97243.50
2022-09-15T06:08:17.216Z,97246.19
2022-09-15T06:10:44.483Z,97239.25
2022-09-15T06:13:11.781Z,97244.34
2022-09-15T06:15:39.034Z,97240.84
2022-09-15T06:18:06.351Z,97247.19
2022-09-15T06:20:34.726Z,97256.56
2022-09-15T06:23:02.044Z,97251.44
2022-09-15T06:25:29.321Z,97244.34
2022-09-15T06:27:56.653Z,97251.88
2022-09-15T06:30:24.033Z,97259.53
2022-09-15T06:32:51.335Z,97260.91
2022-09-15T06:35:18.708Z,97258.69
2022-09-15T06:37:46.086Z,97252.72
2022-09-15T06:40:13.441Z,97252.53
2022-09-15T06:42:40.770Z,97253.34
2022-09-15T06:45:11.872Z,97251.06
2022-09-15T06:47:39.126Z,97258.81
2022-09-15T06:50:06.823Z,97261.31
2022-09-15T06:52:34.235Z,97266.91
2022-09-15T06:55:01.511Z,97273.69
2022-09-15T06:57:28.817Z,97272.88
2022-09-15T06:59:56.105Z,97273.31
2022-09-15T07:02:23.556Z,97279.84
2022-09-15T07:04:50.901Z,97282.09
2022-09-15T07:07:18.421Z,97280.88
2022-09-15T07:09:48.928Z,97288.03
2022-09-15T07:12:16.546Z,97283.91
2022-09-15T07:14:44.004Z,97283.09
2022-09-15T07:17:11.292Z,97282.53
2022-09-15T07:19:38.579Z,97285.19
2022-09-15T07:22:05.867Z,97289.25
2022-09-15T07:24:33.169Z,97292.94
2022-09-15T07:27:00.912Z,97286.31
2022-09-15T07:29:28.235Z,97297.66
2022-09-15T07:31:55.603Z,97296.63
2022-09-15T07:34:22.976Z,97301.59
2022-09-15T07:36:50.257Z,97300.31
2022-09-15T07:39:17.708Z,97288.69
2022-09-15T07:41:45.018Z,97294.09
2022-09-15T07:44:13.179Z,97296.84
2022-09-15T07:46:40.535Z,97296.75
2022-09-15T07:49:08.296Z,97291.25
2022-09-15T07:51:35.561Z,97296.44
2022-09-15T07:54:02.953Z,97302.09
2022-09-15T07:56:30.245Z,97313.28
2022-09-15T07:58:57.669Z,97312.72
2022-09-15T08:01:25.136Z,97312.91
2022-09-15T08:03:52.910Z,97318.50
2022-09-15T08:06:22.579Z,97313.41
2022-09-15T08:08:52.426Z,97322.28
2022-09-15T08:11:22.656Z,97328.09
2022-09-15T08:13:51.019Z,97332.31
2022-09-15T08:16:20.942Z,97344.31
2022-09-15T08:18:48.930Z,97340.69
2022-09-15T08:21:20.080Z,97338.78
2022-09-15T08:23:55.903Z,97345.75
2022-09-15T08:26:23.887Z,97355.00
2022-09-15T08:28:51.297Z,97354.75
2022-09-15T08:31:18.837Z,97368.63
2022-09-15T08:33:51.350Z,97369.47
2022-09-15T08:36:19.129Z,97369.66
2022-09-15T08:38:47.382Z,97365.72
2022-09-15T08:41:31.382Z,97363.19
2022-09-15T08:44:27.553Z,97361.31
2022-09-15T08:47:03.097Z,97362.72
2022-09-15T08:49:51.018Z,97369.66
2022-09-15T08:52:44.605Z,97365.44
2022-09-15T08:55:29.219Z,97374.31
2022-09-15T08:57:56.572Z,97368.50
2022-09-15T09:00:27.685Z,97366.03
2022-09-15T09:03:13.553Z,97362.53
2022-09-15T09:05:46.012Z,97365.28
2022-09-15T09:08:31.965Z,97364.84
2022-09-15T09:11:23.520Z,97358.47
2022-09-15T09:14:18.058Z,97365.19
2022-09-15T09:17:12.694Z,97365.75
2022-09-15T09:19:45.897Z,97369.34
2022-09-15T09:22:17.524Z,97375.31
2022-09-15T09:24:46.780Z,97370.22
2022-09-15T09:27:15.925Z,97368.19
2022-09-15T09:29:49.598Z,97367.38
2022-09-15T09:32:45.341Z,97375.13
2022-09-15T09:35:21.494Z,97370.22
2022-09-15T09:37:49.453Z,97369.66
2022-09-15T09:40:17.540Z,97376.47
2022-09-15T09:42:45.455Z,97367.31
2022-09-15T09:45:18.591Z,97364.56
2022-09-15T09:47:49.059Z,97372.44
2022-09-15T09:50:35.375Z,97372.97
2022-09-15T09:53:25.490Z,97364.94
2022-09-15T09:56:16.833Z,97364.94
2022-09-15T09:58:44.885Z,97366.09
2022-09-15T10:01:24.545Z,97372.25
2022-09-15T10:04:12.869Z,97377.19
2022-09-15T10:06:42.496Z,97386.13
2022-09-15T10:09:17.468Z,97387.09
2022-09-15T10:11:46.116Z,97380.50
2022-09-15T10:14:39.975Z,97382.06
2022-09-15T10:17:11.695Z,97393.56
2022-09-15T10:19:48.745Z,97392.06
2022-09-15T10:22:37.596Z,97388.88
2022-09-15T10:25:20.299Z,97393.19
2022-09-15T10:28:13.162Z,97395.78
2022-09-15T10:30:59.315Z,97389.63
2022-09-15T10:33:28.000Z,97388.09
2022-09-15T10:36:00.084Z,97387.09
2022-09-15T10:38:40.509Z,97395.78
2022-09-15T10:41:32.296Z,97393.94
2022-09-15T10:44:04.512Z,97394.59
2022-09-15T10:46:39.426Z,97404.06
2022-09-15T10:49:25.611Z,97406.25
2022-09-15T10:52:16.864Z,97412.50
2022-09-15T10:54:56.013Z,97417.75
2022-09-15T10:58:02.844Z,97425.00
2022-09-15T11:00:42.434Z,97428.16
2022-09-15T11:03:44.885Z,97433.06
2022-09-15T11:06:43.648Z,97442.16
2022-09-15T11:09:25.835Z,97433.41
2022-09-15T11:12:08.609Z,97445.28
2022-09-15T11:14:51.618Z,97447.50
2022-09-15T11:17:22.977Z,97464.09
2022-09-15T11:20:18.136Z,97457.00
2022-09-15T11:23:11.657Z,97474.16
2022-09-15T11:25:45.687Z,97472.78
2022-09-15T11:28:15.592Z,97471.25
2022-09-15T11:30:49.506Z,97480.44
2022-09-15T11:33:52.754Z,97477.25
2022-09-15T11:36:25.543Z,97470.72
2022-09-15T11:39:02.077Z,97482.41
2022-09-15T11:41:35.863Z,97489.94
2022-09-15T11:44:30.907Z,97501.00
2022-09-15T11:47:19.840Z,97508.56
2022-09-15T11:49:50.101Z,97524.47
2022-09-15T11:52:39.715Z,97525.16
2022-09-15T11:55:15.619Z,97530.25
2022-09-15T11:57:52.698Z,97521.84
2022-09-15T12:00:21.426Z,97527.66
2022-09-15T12:03:14.423Z,97528.09
2022-09-15T12:05:50.449Z,97524.41
2022-09-15T12:08:32.383Z,97534.09
2022-09-15T12:11:02.460Z,97525.59
2022-09-15T12:13:30.331Z,97532.06
2022-09-15T12:15:57.896Z,97550.22
2022-09-15T12:18:46.787Z,97558.34
2022-09-15T12:21:19.677Z,97563.13
2022-09-15T12:24:09.200Z,97555.94
2022-09-15T12:26:36.760Z,97558.81
2022-09-15T12:29:24.202Z,97564.50
2022-09-15T12:32:17.051Z,97572.53
2022-09-15T12:35:13.519Z,97583.75
2022-09-15T12:37:44.388Z,97582.75
2022-09-15T12:40:34.448Z,97585.69
2022-09-15T12:43:18.427Z,97591.09
2022-09-15T12:45:56.097Z,97589.72
2022-09-15T12:48:31.292Z,97598.56
2022-09-15T12:51:06.635Z,97592.50
2022-09-15T12:53:37.764Z,97596.53
2022-09-15T12:56:07.534Z,97598.34
2022-09-15T12:59:06.617Z,97594.34
2022-09-15T13:01:51.026Z,97592.59
2022-09-15T13:04:45.729Z,97597.31
2022-09-15T13:07:16.054Z,97598.63
2022-09-15T13:10:06.346Z,97596.34
2022-09-15T13:12:37.717Z,97599.59
2022-09-15T13:15:07.569Z,97603.50
2022-09-15T13:17:35.027Z,97605.38
2022-09-15T13:20:09.152Z,97604.88
2022-09-15T13:22:40.422Z,97607.31
2022-09-15T13:25:10.833Z,97613.72
2022-09-15T13:27:41.997Z,97612.13
2022-09-15T13:30:22.091Z,97614.75
2022-09-15T13:33:20.108Z,97614.84
2022-09-15T13:35:59.190Z,97598.94
2022-09-15T13:38:36.981Z,97602.81
2022-09-15T13:41:30.882Z,97593.50
2022-09-15T13:44:19.324Z,97600.41
2022-09-15T13:47:12.366Z,97601.84
2022-09-15T13:50:10.046Z,97597.97
2022-09-15T13:52:54.621Z,97604.06
2022-09-15T13:55:27.784Z,97599.84
2022-09-15T14:00:59.912Z,97601.72
2022-09-15T14:03:44.075Z,97592.84
2022-09-15T14:06:13.184Z,97605.38
2022-09-15T14:08:41.895Z,97595.69
2022-09-15T14:11:13.439Z,97591.16
2022-09-15T14:13:45.442Z,97596.66
2022-09-15T14:16:23.750Z,97602.22
2022-09-15T14:18:54.032Z,97595.84
2022-09-15T14:21:26.729Z,97596.41
2022-09-15T14:23:55.953Z,97601.22
2022-09-15T14:26:25.566Z,97600.19
2022-09-15T14:28:58.595Z,97603.03
2022-09-15T14:31:37.916Z,97604.63
2022-09-15T14:34:16.694Z,97597.59
2022-09-15T14:36:44.312Z,97593.44
2022-09-15T14:39:23.895Z,97589.31
2022-09-15T14:41:51.648Z,97596.59
2022-09-15T14:47:29.333Z,97593.91
2022-09-15T14:50:21.117Z,97600.97
2022-09-15T14:52:51.891Z,97605.66
2022-09-15T14:55:27.705Z,97611.59
2022-09-15T14:58:14.055Z,97616.06
2022-09-15T15:00:54.563Z,97621.69
2022-09-15T15:03:33.166Z,97621.91
2022-09-15T15:06:28.408Z,97624.75
2022-09-15T15:09:25.069Z,97623.16
2022-09-15T15:11:55.108Z,97627.69
2022-09-15T15:17:02.186Z,97619.38
2022-09-15T15:19:40.728Z,97611.81
2022-09-15T15:22:16.109Z,97621.13
2022-09-15T15:24:49.072Z,97622.00
2022-09-15T15:27:25.510Z,97616.19
2022-09-15T15:29:53.068Z,97618.47
2022-09-15T15:32:25.027Z,97621.53
2022-09-15T15:35:00.086Z,97617.00
2022-09-15T15:37:32.310Z,97623.53
2022-09-15T15:40:03.890Z,97631.75
2022-09-15T15:42:31.285Z,97637.56
2022-09-15T15:45:22.734Z,97637.56
2022-09-15T15:47:50.436Z,97638.75
2022-09-15T15:50:20.843Z,97639.56
2022-09-15T15:52:49.337Z,97631.72
2022-09-15T15:55:18.587Z,97626.97
2022-09-15T15:57:48.726Z,97625.84
2022-09-15T16:00:29.953Z,97624.47
2022-09-15T16:02:57.773Z,97630.53
2022-09-15T16:05:29.476Z,97624.19
2022-09-15T16:07:59.521Z,97620.22
2022-09-15T16:10:30.073Z,97631.13
2022-09-15T16:12:57.365Z,97623.66
2022-09-15T16:15:24.670Z,97633.78
2022-09-15T16:17:52.030Z,97631.72
2022-09-15T16:20:19.771Z,97629.00
2022-09-15T16:22:47.259Z,97633.47
2022-09-15T16:25:34.883Z,97627.22
2022-09-15T16:28:02.917Z,97636.59
2022-09-15T16:30:30.474Z,97632.03
2022-09-15T16:32:58.016Z,97638.19
2022-09-15T16:35:40.262Z,97643.91
2022-09-15T16:38:08.628Z,97648.03
2022-09-15T16:40:37.490Z,97657.22
2022-09-15T16:43:08.842Z,97650.41
2022-09-15T16:45:40.602Z,97648.25
2022-09-15T16:48:09.119Z,97655.25
2022-09-15T16:50:39.907Z,97650.56
2022-09-15T16:53:17.894Z,97659.63
2022-09-15T16:55:52.344Z,97659.63
2022-09-15T16:58:20.621Z,97654.66
2022-09-15T17:00:49.692Z,97666.06
2022-09-15T17:03:21.413Z,97663.06
2022-09-15T17:05:50.901Z,97669.44
2022-09-15T17:08:21.065Z,97669.97
2022-09-15T17:10:49.237Z,97674.63
2022-09-15T17:13:23.062Z,97667.66
2022-09-15T17:15:54.144Z,97670.69
2022-09-15T17:18:22.114Z,97681.22
2022-09-15T17:20:50.523Z,97677.44
2022-09-15T17:23:19.419Z,97680.72
2022-09-15T17:25:51.895Z,97678.06
2022-09-15T17:28:24.291Z,97677.72
2022-09-15T17:30:55.358Z,97682.41
2022-09-15T17:33:22.752Z,97699.22
2022-09-15T17:35:50.259Z,97689.75
2022-09-15T17:38:20.234Z,97689.44
2022-09-15T17:40:48.388Z,97686.78
2022-09-15T17:43:22.359Z,97685.22
2022-09-15T17:45:50.478Z,97683.59
2022-09-15T17:48:17.978Z,97691.16
2022-09-15T17:50:46.192Z,97682.19
2022-09-15T17:53:21.154Z,97687.72
2022-09-15T17:55:49.351Z,97689.72
2022-09-15T17:58:16.930Z,97689.50
2022-09-15T18:00:45.835Z,97695.22
2022-09-15T18:03:24.778Z,97689.88
2022-09-15T18:05:52.751Z,97695.38
2022-09-15T18:08:20.374Z,97698.72
2022-09-15T18:10:48.181Z,97698.91
2022-09-15T18:13:21.047Z,97700.09
2022-09-15T18:15:51.762Z,97706.56
2022-09-15T18:18:23.876Z,97701.28
2022-09-15T18:20:52.973Z,97701.06
2022-09-15T18:23:22.273Z,97704.78
2022-09-15T18:25:50.399Z,97703.00
2022-09-15T18:28:18.631Z,97704.88
2022-09-15T18:30:48.037Z,97711.34
2022-09-15T18:33:20.280Z,97712.69
2022-09-15T18:35:49.365Z,97718.34
2022-09-15T18:38:17.408Z,97708.53
2022-09-15T18:40:50.056Z,97710.03
2022-09-15T18:43:17.785Z,97720.03
2022-09-15T18:45:45.291Z,97710.34
2022-09-15T18:48:13.330Z,97722.78
2022-09-15T18:50:41.733Z,97715.59
2022-09-15T18:53:09.338Z,97713.22
2022-09-15T18:55:36.668Z,97714.09
2022-09-15T18:58:03.981Z,97715.75
2022-09-15T19:00:31.743Z,97714.50
2022-09-15T19:03:00.749Z,97713.50
2022-09-15T19:05:29.712Z,97710.88
2022-09-15T19:07:57.340Z,97717.69
2022-09-15T19:10:26.533Z,97713.22
2022-09-15T19:12:54.155Z,97709.19
2022-09-15T19:15:24.658Z,97712.03
2022-09-15T19:17:52.197Z,97710.84
2022-09-15T19:20:19.930Z,97710.47
2022-09-15T19:22:47.547Z,97710.28
2022-09-15T19:25:14.971Z,97705.66
2022-09-15T19:27:43.036Z,97712.47
2022-09-15T19:30:11.886Z,97708.47
2022-09-15T19:32:39.948Z,97712.41
2022-09-15T19:35:08.056Z,97709.88
2022-09-15T19:37:40.521Z,97716.00
2022-09-15T19:40:09.867Z,97712.72
2022-09-15T19:42:38.521Z,97714.75
2022-09-15T19:45:06.629Z,97713.63
2022-09-15T19:47:34.331Z,97713.78
2022-09-15T19:50:01.997Z,97708.06
2022-09-15T19:52:29.290Z,97712.97
2022-09-15T19:54:56.544Z,97714.25
2022-09-15T19:57:24.021Z,97708.91
2022-09-15T19:59:51.344Z,97712.75
2022-09-15T20:02:19.844Z,97710.41
2022-09-15T20:04:47.655Z,97709.59
2022-09-15T20:07:14.908Z,97719.22
2022-09-15T20:09:42.152Z,97718.78
2022-09-15T20:12:09.464Z,97718.88
2022-09-15T20:14:36.840Z,97720.94
2022-09-15T20:17:04.383Z,97718.81
2022-09-15T20:19:31.878Z,97723.91
2022-09-15T20:21:59.236Z,97719.06
2022-09-15T20:24:26.500Z,97726.09
2022-09-15T20:26:53.832Z,97725.31
2022-09-15T20:29:22.777Z,97733.91
2022-09-15T20:31:50.079Z,97725.88
2022-09-15T20:34:18.643Z,97725.56
2022-09-15T20:36:45.941Z,97719.44
2022-09-15T20:39:14.666Z,97725.78
2022-09-15T20:41:45.101Z,97733.59
2022-09-15T20:44:12.922Z,97723.69
2022-09-15T20:46:40.528Z,97724.38
2022-09-15T20:49:08.885Z,97717.28
2022-09-15T20:51:36.503Z,97715.44
2022-09-15T20:54:04.916Z,97726.03
2022-09-15T20:56:34.772Z,97731.84
2022-09-15T20:59:02.280Z,97721.09
2022-09-15T21:01:35.171Z,97728.75
2022-09-15T21:04:03.010Z,97730.22
2022-09-15T21:06:31.573Z,97731.78
2022-09-15T21:08:59.081Z,97733.38
2022-09-15T21:11:27.969Z,97729.31
2022-09-15T21:13:56.166Z,97739.84
2022-09-15T21:16:25.531Z,97735.63
2022-09-15T21:18:53.183Z,97736.31
2022-09-15T21:21:25.843Z,97734.09
2022-09-15T21:23:55.280Z,97736.31
2022-09-15T21:26:27.875Z,97741.94
2022-09-15T21:28:56.158Z,97736.41
2022-09-15T21:31:29.951Z,97741.88
2022-09-15T21:33:58.414Z,97741.50
2022-09-15T21:36:28.289Z,97741.41
2022-09-15T21:38:56.916Z,97757.34
2022-09-15T21:41:26.747Z,97757.19
2022-09-15T21:43:55.147Z,97752.25
2022-09-15T21:46:24.798Z,97761.31
2022-09-15T21:48:52.223Z,97758.81
2022-09-15T21:51:24.664Z,97756.31
2022-09-15T21:53:57.048Z,97754.94
2022-09-15T21:56:25.312Z,97755.66
2022-09-15T21:58:52.802Z,97753.06
2022-09-15T22:01:25.842Z,97754.06
2022-09-15T22:03:54.052Z,97754.88
2022-09-15T22:06:27.553Z,97752.78
2022-09-15T22:08:55.433Z,97751.25
2022-09-15T22:11:23.341Z,97753.63
2022-09-15T22:13:50.868Z,97755.63
2022-09-15T22:16:20.635Z,97756.88
2022-09-15T22:18:48.941Z,97751.59
2022-09-15T22:21:22.977Z,97756.34
2022-09-15T22:23:51.773Z,97761.50
2022-09-15T22:26:23.987Z,97759.72
2022-09-15T22:28:51.266Z,97756.09
2022-09-15T22:31:20.289Z,97762.03
2022-09-15T22:33:58.528Z,97761.25
2022-09-15T22:36:29.680Z,97759.47
2022-09-15T22:39:05.811Z,97756.28
2022-09-15T22:41:38.464Z,97756.84
2022-09-15T22:44:06.966Z,97763.66
2022-09-15T22:46:34.440Z,97761.81
2022-09-15T22:49:01.921Z,97763.53
2022-09-15T22:51:29.398Z,97763.13
2022-09-15T22:53:57.068Z,97768.59
2022-09-15T22:56:25.977Z,97771.91
2022-09-15T22:58:53.856Z,97766.78
2022-09-15T23:01:23.456Z,97761.06
2022-09-15T23:03:53.569Z,97766.47
2022-09-15T23:06:21.725Z,97763.72
2022-09-15T23:08:56.718Z,97770.16
2022-09-15T23:11:24.359Z,97768.84
2022-09-15T23:13:52.223Z,97768.97
2022-09-15T23:16:19.900Z,97774.31
2022-09-15T23:18:48.283Z,97765.81
2022-09-15T23:21:15.873Z,97763.22
2022-09-15T23:23:44.411Z,97765.09
2022-09-15T23:26:13.295Z,97767.59
2022-09-15T23:28:40.815Z,97751.66
2022-09-15T23:31:09.643Z,97764.19
2022-09-15T23:33:37.049Z,97763.06
2022-09-15T23:36:06.965Z,97763.34
2022-09-15T23:38:39.030Z,97763.34
2022-09-15T23:41:06.812Z,97757.63
2022-09-15T23:43:34.428Z,97758.97
2022-09-15T23:46:02.272Z,97766.44
2022-09-15T23:48:31.577Z,97765.88
2022-09-15T23:50:59.213Z,97760.19
2022-09-15T23:53:26.656Z,97766.28
2022-09-15T23:55:54.045Z,97757.63
2022-09-15T23:58:21.342Z,97754.00
